sensor_id;sensor_type;location;lat;lon;timestamp;temperature;humidity
34927;DHT22;21132;48.308;14.274;2022-08-01T00:01:24;24.60;55.90
34927;DHT22;21132;48.308;14.274;2022-08-01T00:03:50;24.60;56.20
34927;DHT22;21132;48.308;14.274;2022-08-01T00:06:16;24.50;56.40
34927;DHT22;21132;48.308;14.274;2022-08-01T00:08:41;24.50;57.00
34927;DHT22;21132;48.308;14.274;2022-08-01T00:11:07;24.50;57.00
34927;DHT22;21132;48.308;14.274;2022-08-01T00:13:35;24.50;56.70
34927;DHT22;21132;48.308;14.274;2022-08-01T00:16:01;24.50;56.60
34927;DHT22;21132;48.308;14.274;2022-08-01T00:18:27;24.40;57.10
34927;DHT22;21132;48.308;14.274;2022-08-01T00:20:53;24.40;57.00
34927;DHT22;21132;48.308;14.274;2022-08-01T00:23:18;24.40;57.00
34927;DHT22;21132;48.308;14.274;2022-08-01T00:25:44;24.40;57.00
34927;DHT22;21132;48.308;14.274;2022-08-01T00:28:10;24.40;57.00
34927;DHT22;21132;48.308;14.274;2022-08-01T00:30:36;24.40;56.90
34927;DHT22;21132;48.308;14.274;2022-08-01T00:33:02;24.40;56.80
34927;DHT22;21132;48.308;14.274;2022-08-01T00:35:28;24.40;57.00
34927;DHT22;21132;48.308;14.274;2022-08-01T00:37:54;24.40;57.00
34927;DHT22;21132;48.308;14.274;2022-08-01T00:40:20;24.30;57.10
34927;DHT22;21132;48.308;14.274;2022-08-01T00:42:46;24.30;57.10
34927;DHT22;21132;48.308;14.274;2022-08-01T00:45:12;24.30;57.00
34927;DHT22;21132;48.308;14.274;2022-08-01T00:47:38;24.30;57.20
34927;DHT22;21132;48.308;14.274;2022-08-01T00:50:05;24.30;57.80
34927;DHT22;21132;48.308;14.274;2022-08-01T00:52:32;24.20;57.80
34927;DHT22;21132;48.308;14.274;2022-08-01T00:54:57;24.20;57.60
34927;DHT22;21132;48.308;14.274;2022-08-01T00:57:23;24.20;57.40
34927;DHT22;21132;48.308;14.274;2022-08-01T00:59:49;24.20;57.10
34927;DHT22;21132;48.308;14.274;2022-08-01T01:02:16;24.20;56.80
34927;DHT22;21132;48.308;14.274;2022-08-01T01:04:43;24.20;56.80
34927;DHT22;21132;48.308;14.274;2022-08-01T01:10:07;24.20;57.40
34927;DHT22;21132;48.308;14.274;2022-08-01T01:15:10;24.20;57.40
34927;DHT22;21132;48.308;14.274;2022-08-01T01:20:31;24.10;57.40
34927;DHT22;21132;48.308;14.274;2022-08-01T01:23:21;24.10;57.70
34927;DHT22;21132;48.308;14.274;2022-08-01T01:26:20;24.10;57.70
34927;DHT22;21132;48.308;14.274;2022-08-01T01:29:06;24.10;57.40
34927;DHT22;21132;48.308;14.274;2022-08-01T01:31:48;24.10;57.50
34927;DHT22;21132;48.308;14.274;2022-08-01T01:34:18;24.10;57.60
34927;DHT22;21132;48.308;14.274;2022-08-01T01:36:46;24.10;57.80
34927;DHT22;21132;48.308;14.274;2022-08-01T01:39:14;24.10;57.70
34927;DHT22;21132;48.308;14.274;2022-08-01T01:41:41;24.10;57.80
34927;DHT22;21132;48.308;14.274;2022-08-01T01:44:09;24.10;57.80
34927;DHT22;21132;48.308;14.274;2022-08-01T01:46:36;24.10;57.70
34927;DHT22;21132;48.308;14.274;2022-08-01T01:49:03;24.10;57.70
34927;DHT22;21132;48.308;14.274;2022-08-01T01:51:30;24.10;57.70
34927;DHT22;21132;48.308;14.274;2022-08-01T01:53:58;24.00;57.70
34927;DHT22;21132;48.308;14.274;2022-08-01T01:56:25;24.00;57.90
34927;DHT22;21132;48.308;14.274;2022-08-01T01:58:56;24.00;58.10
34927;DHT22;21132;48.308;14.274;2022-08-01T02:01:26;24.00;58.10
34927;DHT22;21132;48.308;14.274;2022-08-01T02:03:55;24.00;57.90
34927;DHT22;21132;48.308;14.274;2022-08-01T02:06:23;24.00;57.90
34927;DHT22;21132;48.308;14.274;2022-08-01T02:08:53;24.00;57.90
34927;DHT22;21132;48.308;14.274;2022-08-01T02:11:22;23.90;57.80
34927;DHT22;21132;48.308;14.274;2022-08-01T02:13:59;23.90;57.90
34927;DHT22;21132;48.308;14.274;2022-08-01T02:16:35;23.90;58.00
34927;DHT22;21132;48.308;14.274;2022-08-01T02:19:01;23.90;58.10
34927;DHT22;21132;48.308;14.274;2022-08-01T02:21:31;23.90;57.90
34927;DHT22;21132;48.308;14.274;2022-08-01T02:24:06;23.80;57.80
34927;DHT22;21132;48.308;14.274;2022-08-01T02:26:34;23.80;57.90
34927;DHT22;21132;48.308;14.274;2022-08-01T02:29:06;23.80;57.80
34927;DHT22;21132;48.308;14.274;2022-08-01T02:31:35;23.80;57.70
34927;DHT22;21132;48.308;14.274;2022-08-01T02:34:06;23.70;57.40
34927;DHT22;21132;48.308;14.274;2022-08-01T02:36:33;23.70;57.30
34927;DHT22;21132;48.308;14.274;2022-08-01T02:39:03;23.70;57.20
34927;DHT22;21132;48.308;14.274;2022-08-01T02:41:31;23.60;57.00
34927;DHT22;21132;48.308;14.274;2022-08-01T02:44:02;23.60;57.00
34927;DHT22;21132;48.308;14.274;2022-08-01T02:46:36;23.60;57.20
34927;DHT22;21132;48.308;14.274;2022-08-01T02:49:07;23.60;57.20
34927;DHT22;21132;48.308;14.274;2022-08-01T02:51:35;23.60;57.20
34927;DHT22;21132;48.308;14.274;2022-08-01T02:54:03;23.50;57.10
34927;DHT22;21132;48.308;14.274;2022-08-01T02:56:31;23.50;57.10
34927;DHT22;21132;48.308;14.274;2022-08-01T02:59:06;23.50;56.90
34927;DHT22;21132;48.308;14.274;2022-08-01T03:01:34;23.50;56.80
34927;DHT22;21132;48.308;14.274;2022-08-01T03:04:03;23.40;56.80
34927;DHT22;21132;48.308;14.274;2022-08-01T03:06:32;23.40;56.80
34927;DHT22;21132;48.308;14.274;2022-08-01T03:09:00;23.40;56.80
34927;DHT22;21132;48.308;14.274;2022-08-01T03:11:28;23.40;56.90
34927;DHT22;21132;48.308;14.274;2022-08-01T03:13:56;23.40;57.10
34927;DHT22;21132;48.308;14.274;2022-08-01T03:16:25;23.40;57.00
34927;DHT22;21132;48.308;14.274;2022-08-01T03:18:54;23.40;56.90
34927;DHT22;21132;48.308;14.274;2022-08-01T03:21:23;23.40;56.80
34927;DHT22;21132;48.308;14.274;2022-08-01T03:23:53;23.40;57.10
34927;DHT22;21132;48.308;14.274;2022-08-01T03:26:26;23.40;57.10
34927;DHT22;21132;48.308;14.274;2022-08-01T03:28:56;23.40;56.90
34927;DHT22;21132;48.308;14.274;2022-08-01T03:31:22;23.40;57.10
34927;DHT22;21132;48.308;14.274;2022-08-01T03:33:49;23.30;57.10
34927;DHT22;21132;48.308;14.274;2022-08-01T03:36:15;23.40;57.20
34927;DHT22;21132;48.308;14.274;2022-08-01T03:38:43;23.40;57.20
34927;DHT22;21132;48.308;14.274;2022-08-01T03:41:18;23.40;57.30
34927;DHT22;21132;48.308;14.274;2022-08-01T03:44:00;23.40;57.40
34927;DHT22;21132;48.308;14.274;2022-08-01T03:47:04;23.40;57.50
34927;DHT22;21132;48.308;14.274;2022-08-01T03:49:33;23.40;57.50
34927;DHT22;21132;48.308;14.274;2022-08-01T03:52:04;23.40;57.40
34927;DHT22;21132;48.308;14.274;2022-08-01T03:54:35;23.40;58.20
34927;DHT22;21132;48.308;14.274;2022-08-01T03:57:02;23.40;57.50
34927;DHT22;21132;48.308;14.274;2022-08-01T03:59:29;23.40;57.80
34927;DHT22;21132;48.308;14.274;2022-08-01T04:01:59;23.40;57.80
34927;DHT22;21132;48.308;14.274;2022-08-01T04:04:25;23.50;57.80
34927;DHT22;21132;48.308;14.274;2022-08-01T04:06:51;23.50;58.10
34927;DHT22;21132;48.308;14.274;2022-08-01T04:09:20;23.50;58.20
34927;DHT22;21132;48.308;14.274;2022-08-01T04:11:47;23.50;58.10
34927;DHT22;21132;48.308;14.274;2022-08-01T04:14:13;23.50;58.10
34927;DHT22;21132;48.308;14.274;2022-08-01T04:16:39;23.50;58.50
34927;DHT22;21132;48.308;14.274;2022-08-01T04:19:05;23.50;58.50
34927;DHT22;21132;48.308;14.274;2022-08-01T04:21:34;23.50;58.40
34927;DHT22;21132;48.308;14.274;2022-08-01T04:24:16;23.40;58.30
34927;DHT22;21132;48.308;14.274;2022-08-01T04:26:45;23.40;58.40
34927;DHT22;21132;48.308;14.274;2022-08-01T04:29:14;23.40;58.20
34927;DHT22;21132;48.308;14.274;2022-08-01T04:31:43;23.40;58.30
34927;DHT22;21132;48.308;14.274;2022-08-01T04:34:12;23.40;58.40
34927;DHT22;21132;48.308;14.274;2022-08-01T04:36:40;23.30;58.40
34927;DHT22;21132;48.308;14.274;2022-08-01T04:39:11;23.30;58.40
34927;DHT22;21132;48.308;14.274;2022-08-01T04:41:38;23.30;58.50
34927;DHT22;21132;48.308;14.274;2022-08-01T04:44:05;23.30;58.60
34927;DHT22;21132;48.308;14.274;2022-08-01T04:46:33;23.30;58.60
34927;DHT22;21132;48.308;14.274;2022-08-01T04:49:01;23.20;58.90
34927;DHT22;21132;48.308;14.274;2022-08-01T04:51:27;23.20;59.10
34927;DHT22;21132;48.308;14.274;2022-08-01T04:53:52;23.20;59.10
34927;DHT22;21132;48.308;14.274;2022-08-01T04:56:20;23.20;59.20
34927;DHT22;21132;48.308;14.274;2022-08-01T04:58:46;23.30;59.50
34927;DHT22;21132;48.308;14.274;2022-08-01T05:01:12;23.30;59.50
34927;DHT22;21132;48.308;14.274;2022-08-01T05:03:38;23.40;59.60
34927;DHT22;21132;48.308;14.274;2022-08-01T05:06:04;23.40;59.60
34927;DHT22;21132;48.308;14.274;2022-08-01T05:08:30;23.50;59.50
34927;DHT22;21132;48.308;14.274;2022-08-01T05:10:55;23.60;59.50
34927;DHT22;21132;48.308;14.274;2022-08-01T05:13:21;23.70;59.50
34927;DHT22;21132;48.308;14.274;2022-08-01T05:15:47;23.80;59.20
34927;DHT22;21132;48.308;14.274;2022-08-01T05:18:13;23.90;58.90
34927;DHT22;21132;48.308;14.274;2022-08-01T05:20:39;24.00;58.70
34927;DHT22;21132;48.308;14.274;2022-08-01T05:23:06;24.00;58.60
34927;DHT22;21132;48.308;14.274;2022-08-01T05:25:32;24.10;58.50
34927;DHT22;21132;48.308;14.274;2022-08-01T05:27:58;24.20;58.30
34927;DHT22;21132;48.308;14.274;2022-08-01T05:30:24;24.30;58.20
34927;DHT22;21132;48.308;14.274;2022-08-01T05:32:50;24.30;58.00
34927;DHT22;21132;48.308;14.274;2022-08-01T05:35:16;24.40;57.90
34927;DHT22;21132;48.308;14.274;2022-08-01T05:37:41;24.40;57.60
34927;DHT22;21132;48.308;14.274;2022-08-01T05:40:08;24.50;57.60
34927;DHT22;21132;48.308;14.274;2022-08-01T05:42:34;24.60;57.60
34927;DHT22;21132;48.308;14.274;2022-08-01T05:44:59;24.60;57.20
34927;DHT22;21132;48.308;14.274;2022-08-01T05:47:25;24.60;57.00
34927;DHT22;21132;48.308;14.274;2022-08-01T05:49:51;24.70;56.90
34927;DHT22;21132;48.308;14.274;2022-08-01T05:52:17;24.70;56.80
34927;DHT22;21132;48.308;14.274;2022-08-01T05:54:42;24.70;56.50
34927;DHT22;21132;48.308;14.274;2022-08-01T05:57:08;24.70;56.00
34927;DHT22;21132;48.308;14.274;2022-08-01T05:59:34;24.70;56.20
34927;DHT22;21132;48.308;14.274;2022-08-01T06:02:00;24.80;56.00
34927;DHT22;21132;48.308;14.274;2022-08-01T06:04:25;24.80;55.70
34927;DHT22;21132;48.308;14.274;2022-08-01T06:06:51;24.80;55.60
34927;DHT22;21132;48.308;14.274;2022-08-01T06:09:17;24.80;55.90
34927;DHT22;21132;48.308;14.274;2022-08-01T06:11:43;24.90;56.20
34927;DHT22;21132;48.308;14.274;2022-08-01T06:14:08;25.00;56.30
34927;DHT22;21132;48.308;14.274;2022-08-01T06:16:34;25.10;55.90
34927;DHT22;21132;48.308;14.274;2022-08-01T06:19:00;25.10;55.80
34927;DHT22;21132;48.308;14.274;2022-08-01T06:21:26;25.20;55.70
34927;DHT22;21132;48.308;14.274;2022-08-01T06:23:52;25.20;55.50
34927;DHT22;21132;48.308;14.274;2022-08-01T06:26:19;25.30;55.60
34927;DHT22;21132;48.308;14.274;2022-08-01T06:28:45;25.30;55.70
34927;DHT22;21132;48.308;14.274;2022-08-01T06:31:10;25.40;55.70
34927;DHT22;21132;48.308;14.274;2022-08-01T06:33:38;25.50;55.40
34927;DHT22;21132;48.308;14.274;2022-08-01T06:36:03;25.60;55.30
34927;DHT22;21132;48.308;14.274;2022-08-01T06:38:29;25.70;55.50
34927;DHT22;21132;48.308;14.274;2022-08-01T06:40:55;25.80;55.40
34927;DHT22;21132;48.308;14.274;2022-08-01T06:43:21;25.90;55.30
34927;DHT22;21132;48.308;14.274;2022-08-01T06:45:47;26.10;55.30
34927;DHT22;21132;48.308;14.274;2022-08-01T06:48:13;26.20;54.90
34927;DHT22;21132;48.308;14.274;2022-08-01T06:50:39;26.30;54.50
34927;DHT22;21132;48.308;14.274;2022-08-01T06:53:05;26.40;54.10
34927;DHT22;21132;48.308;14.274;2022-08-01T06:55:31;26.40;53.30
34927;DHT22;21132;48.308;14.274;2022-08-01T06:57:56;26.50;53.40
34927;DHT22;21132;48.308;14.274;2022-08-01T07:00:23;26.60;53.30
34927;DHT22;21132;48.308;14.274;2022-08-01T07:02:52;26.60;52.90
34927;DHT22;21132;48.308;14.274;2022-08-01T07:05:18;26.60;52.30
34927;DHT22;21132;48.308;14.274;2022-08-01T07:07:44;26.60;51.50
34927;DHT22;21132;48.308;14.274;2022-08-01T07:10:10;26.70;51.70
34927;DHT22;21132;48.308;14.274;2022-08-01T07:12:36;26.60;50.60
34927;DHT22;21132;48.308;14.274;2022-08-01T07:15:07;26.60;50.20
34927;DHT22;21132;48.308;14.274;2022-08-01T07:17:41;26.50;50.10
34927;DHT22;21132;48.308;14.274;2022-08-01T07:20:12;26.30;49.80
34927;DHT22;21132;48.308;14.274;2022-08-01T07:22:38;26.30;50.30
34927;DHT22;21132;48.308;14.274;2022-08-01T07:25:05;26.20;50.30
34927;DHT22;21132;48.308;14.274;2022-08-01T07:27:31;26.10;50.80
34927;DHT22;21132;48.308;14.274;2022-08-01T07:29:57;26.10;51.00
34927;DHT22;21132;48.308;14.274;2022-08-01T07:32:23;26.10;52.00
34927;DHT22;21132;48.308;14.274;2022-08-01T07:34:49;26.10;51.30
34927;DHT22;21132;48.308;14.274;2022-08-01T07:37:15;26.10;51.10
34927;DHT22;21132;48.308;14.274;2022-08-01T07:39:41;26.10;51.30
34927;DHT22;21132;48.308;14.274;2022-08-01T07:42:07;26.10;51.30
34927;DHT22;21132;48.308;14.274;2022-08-01T07:44:33;26.10;51.30
34927;DHT22;21132;48.308;14.274;2022-08-01T07:46:59;26.00;51.00
34927;DHT22;21132;48.308;14.274;2022-08-01T07:49:26;26.00;51.20
34927;DHT22;21132;48.308;14.274;2022-08-01T07:51:55;26.00;51.20
34927;DHT22;21132;48.308;14.274;2022-08-01T07:54:20;26.00;51.20
34927;DHT22;21132;48.308;14.274;2022-08-01T07:56:49;26.00;51.30
34927;DHT22;21132;48.308;14.274;2022-08-01T07:59:15;26.00;51.50
34927;DHT22;21132;48.308;14.274;2022-08-01T08:01:41;26.00;51.20
34927;DHT22;21132;48.308;14.274;2022-08-01T08:04:07;26.10;51.30
34927;DHT22;21132;48.308;14.274;2022-08-01T08:06:33;26.10;51.20
34927;DHT22;21132;48.308;14.274;2022-08-01T08:08:58;26.10;49.80
34927;DHT22;21132;48.308;14.274;2022-08-01T08:11:24;26.10;50.00
34927;DHT22;21132;48.308;14.274;2022-08-01T08:13:50;26.00;49.70
34927;DHT22;21132;48.308;14.274;2022-08-01T08:16:16;26.00;49.10
34927;DHT22;21132;48.308;14.274;2022-08-01T08:18:41;26.10;49.10
34927;DHT22;21132;48.308;14.274;2022-08-01T08:21:07;26.10;48.60
34927;DHT22;21132;48.308;14.274;2022-08-01T08:23:33;26.10;48.40
34927;DHT22;21132;48.308;14.274;2022-08-01T08:26:17;26.10;49.20
34927;DHT22;21132;48.308;14.274;2022-08-01T08:28:43;26.20;49.20
34927;DHT22;21132;48.308;14.274;2022-08-01T08:31:09;26.30;48.90
34927;DHT22;21132;48.308;14.274;2022-08-01T08:33:36;26.40;49.00
34927;DHT22;21132;48.308;14.274;2022-08-01T08:36:02;26.40;48.00
34927;DHT22;21132;48.308;14.274;2022-08-01T08:38:27;26.50;48.60
34927;DHT22;21132;48.308;14.274;2022-08-01T08:40:53;26.60;47.60
34927;DHT22;21132;48.308;14.274;2022-08-01T08:43:19;26.60;48.00
34927;DHT22;21132;48.308;14.274;2022-08-01T08:45:46;26.60;47.30
34927;DHT22;21132;48.308;14.274;2022-08-01T08:48:15;26.70;47.50
34927;DHT22;21132;48.308;14.274;2022-08-01T08:50:41;26.70;47.20
34927;DHT22;21132;48.308;14.274;2022-08-01T08:53:10;26.70;46.50
34927;DHT22;21132;48.308;14.274;2022-08-01T08:55:37;26.80;46.90
34927;DHT22;21132;48.308;14.274;2022-08-01T08:58:03;26.90;47.10
34927;DHT22;21132;48.308;14.274;2022-08-01T09:00:32;27.00;47.10
34927;DHT22;21132;48.308;14.274;2022-08-01T09:02:58;27.00;47.10
34927;DHT22;21132;48.308;14.274;2022-08-01T09:05:24;27.20;46.70
34927;DHT22;21132;48.308;14.274;2022-08-01T09:07:52;27.30;46.60
34927;DHT22;21132;48.308;14.274;2022-08-01T09:10:18;27.30;45.10
34927;DHT22;21132;48.308;14.274;2022-08-01T09:13:06;27.40;45.10
34927;DHT22;21132;48.308;14.274;2022-08-01T09:15:40;27.50;45.30
34927;DHT22;21132;48.308;14.274;2022-08-01T09:18:06;27.50;44.50
34927;DHT22;21132;48.308;14.274;2022-08-01T09:20:32;27.60;44.20
34927;DHT22;21132;48.308;14.274;2022-08-01T09:23:00;27.60;44.70
34927;DHT22;21132;48.308;14.274;2022-08-01T09:25:26;27.60;44.50
34927;DHT22;21132;48.308;14.274;2022-08-01T09:28:05;27.70;45.00
34927;DHT22;21132;48.308;14.274;2022-08-01T09:30:37;27.80;44.60
34927;DHT22;21132;48.308;14.274;2022-08-01T09:33:04;27.90;44.90
34927;DHT22;21132;48.308;14.274;2022-08-01T09:35:35;27.90;44.90
34927;DHT22;21132;48.308;14.274;2022-08-01T09:38:16;28.00;44.20
34927;DHT22;21132;48.308;14.274;2022-08-01T09:40:55;28.00;43.90
34927;DHT22;21132;48.308;14.274;2022-08-01T09:43:23;28.10;43.70
34927;DHT22;21132;48.308;14.274;2022-08-01T09:45:50;28.20;43.60
34927;DHT22;21132;48.308;14.274;2022-08-01T09:48:17;28.20;44.00
34927;DHT22;21132;48.308;14.274;2022-08-01T09:50:47;28.30;42.90
34927;DHT22;21132;48.308;14.274;2022-08-01T09:53:14;28.30;42.60
34927;DHT22;21132;48.308;14.274;2022-08-01T09:55:41;28.40;43.10
34927;DHT22;21132;48.308;14.274;2022-08-01T09:58:08;28.40;43.30
34927;DHT22;21132;48.308;14.274;2022-08-01T10:00:35;28.50;42.90
34927;DHT22;21132;48.308;14.274;2022-08-01T10:03:22;28.50;43.10
34927;DHT22;21132;48.308;14.274;2022-08-01T10:05:48;28.50;43.30
34927;DHT22;21132;48.308;14.274;2022-08-01T10:08:14;28.60;43.20
34927;DHT22;21132;48.308;14.274;2022-08-01T10:10:40;28.60;42.90
34927;DHT22;21132;48.308;14.274;2022-08-01T10:13:06;28.70;43.30
34927;DHT22;21132;48.308;14.274;2022-08-01T10:15:33;28.70;43.10
34927;DHT22;21132;48.308;14.274;2022-08-01T10:18:02;28.70;43.00
34927;DHT22;21132;48.308;14.274;2022-08-01T10:20:31;28.80;42.80
34927;DHT22;21132;48.308;14.274;2022-08-01T10:23:03;28.80;42.90
34927;DHT22;21132;48.308;14.274;2022-08-01T10:25:35;28.90;43.10
34927;DHT22;21132;48.308;14.274;2022-08-01T10:28:10;29.00;42.70
34927;DHT22;21132;48.308;14.274;2022-08-01T10:30:41;29.00;42.60
34927;DHT22;21132;48.308;14.274;2022-08-01T10:33:10;29.10;42.60
34927;DHT22;21132;48.308;14.274;2022-08-01T10:35:38;29.20;42.70
34927;DHT22;21132;48.308;14.274;2022-08-01T10:38:05;29.20;42.30
34927;DHT22;21132;48.308;14.274;2022-08-01T10:40:32;29.30;41.60
34927;DHT22;21132;48.308;14.274;2022-08-01T10:42:58;29.30;41.50
34927;DHT22;21132;48.308;14.274;2022-08-01T10:45:24;29.40;41.80
34927;DHT22;21132;48.308;14.274;2022-08-01T10:48:07;29.50;41.50
34927;DHT22;21132;48.308;14.274;2022-08-01T10:53:13;29.60;41.70
34927;DHT22;21132;48.308;14.274;2022-08-01T10:58:31;29.70;41.30
34927;DHT22;21132;48.308;14.274;2022-08-01T11:01:23;29.80;40.50
34927;DHT22;21132;48.308;14.274;2022-08-01T11:04:08;29.80;40.50
34927;DHT22;21132;48.308;14.274;2022-08-01T11:09:05;30.00;39.80
34927;DHT22;21132;48.308;14.274;2022-08-01T11:14:25;30.50;40.50
34927;DHT22;21132;48.308;14.274;2022-08-01T11:16:51;30.70;40.30
34927;DHT22;21132;48.308;14.274;2022-08-01T11:19:17;31.00;39.20
34927;DHT22;21132;48.308;14.274;2022-08-01T11:27:25;31.70;38.40
34927;DHT22;21132;48.308;14.274;2022-08-01T11:32:48;32.00;36.80
34927;DHT22;21132;48.308;14.274;2022-08-01T11:35:14;32.10;37.90
34927;DHT22;21132;48.308;14.274;2022-08-01T11:37:40;32.20;34.90
34927;DHT22;21132;48.308;14.274;2022-08-01T11:40:28;32.30;35.40
34927;DHT22;21132;48.308;14.274;2022-08-01T11:43:16;32.40;36.10
34927;DHT22;21132;48.308;14.274;2022-08-01T11:45:50;32.50;36.20
34927;DHT22;21132;48.308;14.274;2022-08-01T11:48:20;32.60;34.70
34927;DHT22;21132;48.308;14.274;2022-08-01T11:50:47;32.70;34.80
34927;DHT22;21132;48.308;14.274;2022-08-01T11:53:13;32.80;34.40
34927;DHT22;21132;48.308;14.274;2022-08-01T11:55:49;32.80;33.80
34927;DHT22;21132;48.308;14.274;2022-08-01T11:58:21;32.90;33.60
34927;DHT22;21132;48.308;14.274;2022-08-01T12:00:55;33.00;32.70
34927;DHT22;21132;48.308;14.274;2022-08-01T12:03:30;33.00;33.20
34927;DHT22;21132;48.308;14.274;2022-08-01T12:05:57;33.00;32.50
34927;DHT22;21132;48.308;14.274;2022-08-01T12:08:30;33.00;32.40
34927;DHT22;21132;48.308;14.274;2022-08-01T12:11:03;32.90;32.70
34927;DHT22;21132;48.308;14.274;2022-08-01T12:13:42;32.90;32.20
34927;DHT22;21132;48.308;14.274;2022-08-01T12:16:10;32.90;32.30
34927;DHT22;21132;48.308;14.274;2022-08-01T12:18:40;32.90;32.30
34927;DHT22;21132;48.308;14.274;2022-08-01T12:21:06;32.90;31.60
34927;DHT22;21132;48.308;14.274;2022-08-01T12:23:32;32.90;31.80
34927;DHT22;21132;48.308;14.274;2022-08-01T12:25:58;33.00;31.80
34927;DHT22;21132;48.308;14.274;2022-08-01T12:28:23;33.00;31.90
34927;DHT22;21132;48.308;14.274;2022-08-01T12:30:50;33.10;32.60
34927;DHT22;21132;48.308;14.274;2022-08-01T12:33:20;33.20;31.80
34927;DHT22;21132;48.308;14.274;2022-08-01T12:35:46;33.20;32.20
34927;DHT22;21132;48.308;14.274;2022-08-01T12:38:21;33.20;31.90
34927;DHT22;21132;48.308;14.274;2022-08-01T12:40:48;33.10;31.50
34927;DHT22;21132;48.308;14.274;2022-08-01T12:43:19;33.00;31.60
34927;DHT22;21132;48.308;14.274;2022-08-01T12:45:48;32.90;32.00
34927;DHT22;21132;48.308;14.274;2022-08-01T12:48:16;32.90;32.60
34927;DHT22;21132;48.308;14.274;2022-08-01T12:50:44;32.80;33.40
34927;DHT22;21132;48.308;14.274;2022-08-01T12:53:11;32.60;32.50
34927;DHT22;21132;48.308;14.274;2022-08-01T12:55:50;32.60;33.00
34927;DHT22;21132;48.308;14.274;2022-08-01T12:58:17;32.60;33.30
34927;DHT22;21132;48.308;14.274;2022-08-01T13:00:45;32.60;34.10
34927;DHT22;21132;48.308;14.274;2022-08-01T13:03:14;32.70;32.60
34927;DHT22;21132;48.308;14.274;2022-08-01T13:05:54;32.80;32.20
34927;DHT22;21132;48.308;14.274;2022-08-01T13:08:33;32.90;32.30
34927;DHT22;21132;48.308;14.274;2022-08-01T13:11:07;32.90;32.70
34927;DHT22;21132;48.308;14.274;2022-08-01T13:13:50;32.70;34.20
34927;DHT22;21132;48.308;14.274;2022-08-01T13:16:21;32.30;37.40
34927;DHT22;21132;48.308;14.274;2022-08-01T13:18:52;31.80;38.40
34927;DHT22;21132;48.308;14.274;2022-08-01T13:21:24;31.00;49.50
34927;DHT22;21132;48.308;14.274;2022-08-01T13:26:39;29.00;59.40
34927;DHT22;21132;48.308;14.274;2022-08-01T13:29:06;28.20;63.60
34927;DHT22;21132;48.308;14.274;2022-08-01T13:31:34;27.60;66.70
34927;DHT22;21132;48.308;14.274;2022-08-01T13:34:00;27.10;69.10
34927;DHT22;21132;48.308;14.274;2022-08-01T13:36:27;26.60;72.40
34927;DHT22;21132;48.308;14.274;2022-08-01T13:38:54;26.30;75.00
34927;DHT22;21132;48.308;14.274;2022-08-01T13:41:39;26.10;77.50
34927;DHT22;21132;48.308;14.274;2022-08-01T13:44:05;25.90;80.10
34927;DHT22;21132;48.308;14.274;2022-08-01T13:46:31;25.90;82.30
34927;DHT22;21132;48.308;14.274;2022-08-01T13:48:57;25.80;83.80
34927;DHT22;21132;48.308;14.274;2022-08-01T13:51:23;25.70;84.60
34927;DHT22;21132;48.308;14.274;2022-08-01T13:53:49;25.80;86.20
34927;DHT22;21132;48.308;14.274;2022-08-01T13:56:14;25.80;88.80
34927;DHT22;21132;48.308;14.274;2022-08-01T13:58:43;26.10;90.70
34927;DHT22;21132;48.308;14.274;2022-08-01T14:01:09;26.40;91.80
34927;DHT22;21132;48.308;14.274;2022-08-01T14:03:35;26.80;93.20
34927;DHT22;21132;48.308;14.274;2022-08-01T14:06:02;27.20;92.40
34927;DHT22;21132;48.308;14.274;2022-08-01T14:08:27;27.30;88.60
34927;DHT22;21132;48.308;14.274;2022-08-01T14:10:53;27.40;87.10
34927;DHT22;21132;48.308;14.274;2022-08-01T14:13:23;27.60;87.80
34927;DHT22;21132;48.308;14.274;2022-08-01T14:15:48;27.80;90.00
34927;DHT22;21132;48.308;14.274;2022-08-01T14:18:15;28.00;90.30
34927;DHT22;21132;48.308;14.274;2022-08-01T14:20:42;28.30;90.50
34927;DHT22;21132;48.308;14.274;2022-08-01T14:23:08;28.60;90.50
34927;DHT22;21132;48.308;14.274;2022-08-01T14:25:39;29.00;90.80
34927;DHT22;21132;48.308;14.274;2022-08-01T14:28:05;29.50;92.90
34927;DHT22;21132;48.308;14.274;2022-08-01T14:30:32;30.10;92.50
34927;DHT22;21132;48.308;14.274;2022-08-01T14:32:58;30.70;91.50
34927;DHT22;21132;48.308;14.274;2022-08-01T14:35:24;31.30;90.10
34927;DHT22;21132;48.308;14.274;2022-08-01T14:37:50;31.80;85.20
34927;DHT22;21132;48.308;14.274;2022-08-01T14:40:16;32.30;85.20
34927;DHT22;21132;48.308;14.274;2022-08-01T14:42:42;32.80;81.20
34927;DHT22;21132;48.308;14.274;2022-08-01T14:45:10;33.30;76.40
34927;DHT22;21132;48.308;14.274;2022-08-01T14:47:37;33.80;74.00
34927;DHT22;21132;48.308;14.274;2022-08-01T14:50:09;34.20;74.70
34927;DHT22;21132;48.308;14.274;2022-08-01T14:52:35;34.70;73.90
34927;DHT22;21132;48.308;14.274;2022-08-01T14:55:02;35.20;71.20
34927;DHT22;21132;48.308;14.274;2022-08-01T14:57:29;35.70;68.90
34927;DHT22;21132;48.308;14.274;2022-08-01T14:59:55;36.20;64.60
34927;DHT22;21132;48.308;14.274;2022-08-01T15:02:21;36.70;60.70
34927;DHT22;21132;48.308;14.274;2022-08-01T15:04:47;37.20;57.60
34927;DHT22;21132;48.308;14.274;2022-08-01T15:07:13;37.60;54.00
34927;DHT22;21132;48.308;14.274;2022-08-01T15:09:40;38.00;51.10
34927;DHT22;21132;48.308;14.274;2022-08-01T15:12:06;38.40;47.10
34927;DHT22;21132;48.308;14.274;2022-08-01T15:14:32;38.70;47.00
34927;DHT22;21132;48.308;14.274;2022-08-01T15:17:29;39.00;44.90
34927;DHT22;21132;48.308;14.274;2022-08-01T15:19:59;39.30;45.50
34927;DHT22;21132;48.308;14.274;2022-08-01T15:22:26;39.30;41.90
34927;DHT22;21132;48.308;14.274;2022-08-01T15:24:53;39.00;38.30
34927;DHT22;21132;48.308;14.274;2022-08-01T15:27:19;38.70;40.50
34927;DHT22;21132;48.308;14.274;2022-08-01T15:29:47;38.20;43.60
34927;DHT22;21132;48.308;14.274;2022-08-01T15:32:13;38.10;44.00
34927;DHT22;21132;48.308;14.274;2022-08-01T15:34:40;38.20;46.10
34927;DHT22;21132;48.308;14.274;2022-08-01T15:37:06;38.40;46.50
34927;DHT22;21132;48.308;14.274;2022-08-01T15:39:33;38.50;44.00
34927;DHT22;21132;48.308;14.274;2022-08-01T15:42:03;38.60;47.30
34927;DHT22;21132;48.308;14.274;2022-08-01T15:44:30;38.70;45.70
34927;DHT22;21132;48.308;14.274;2022-08-01T15:46:56;38.90;44.60
34927;DHT22;21132;48.308;14.274;2022-08-01T15:49:22;39.00;43.80
34927;DHT22;21132;48.308;14.274;2022-08-01T15:51:49;39.00;44.00
34927;DHT22;21132;48.308;14.274;2022-08-01T15:54:16;39.00;46.60